Time;durP1;ratioP1;P1;durP2;ratioP2;P2;SDS_P1;SDS_P2;PMS_P1;PMS_P2;Temp;Humidity;BMP_temperature;BMP_pressure;BME280_temperature;BME280_humidity;BME280_pressure;Samples;Min_cycle;Max_cycle;Signal;HPM_P1;HPM_P2
2023/06/27 00:09:53;;;;;;;10.63;5.78;;;;;;;24.91;100.00;100475.75;20964261;28;20048;-78
2023/06/27 00:20:17;;;;;;;10.80;4.88;;;;;;;24.93;100.00;100468.44;20965874;28;20697;-80
2023/06/27 00:30:40;;;;;;;9.45;5.55;;;;;;;24.93;100.00;100461.22;21003822;28;20052;-78
2023/06/27 00:41:05;;;;;;;11.68;5.50;;;;;;;24.92;100.00;100464.00;20946156;28;20037;-79
2023/06/27 00:51:30;;;;;;;15.05;5.05;;;;;;;24.89;100.00;100455.97;20973222;28;20044;-79
2023/06/27 01:01:49;;;;;;;10.70;5.50;;;;;;;24.86;100.00;100446.22;20993129;28;20052;-80
2023/06/27 01:12:20;;;;;;;9.95;4.65;;;;;;;24.86;100.00;100440.81;21017264;28;20131;-79
2023/06/27 01:22:51;;;;;;;8.25;4.88;;;;;;;24.80;100.00;100432.16;20978863;28;20061;-80
2023/06/27 01:33:21;;;;;;;8.45;5.03;;;;;;;24.79;100.00;100435.78;21017737;28;20055;-79
2023/06/27 01:43:46;;;;;;;13.88;5.78;;;;;;;24.75;100.00;100420.66;20964845;28;20583;-80
2023/06/27 01:54:11;;;;;;;8.90;4.95;;;;;;;24.68;100.00;100430.03;20976452;28;20058;-79
2023/06/27 02:04:13;;;;;;;10.23;4.82;;;;;;;24.66;100.00;100440.91;20990385;28;20078;-79
2023/06/27 02:14:38;;;;;;;8.07;4.82;;;;;;;24.64;100.00;100445.50;20958484;28;21043;-79
2023/06/27 02:25:00;;;;;;;10.55;5.45;;;;;;;24.67;100.00;100466.09;20961286;28;20424;-79
2023/06/27 02:35:25;;;;;;;8.90;4.40;;;;;;;24.58;100.00;100475.47;20952386;28;20044;-79
2023/06/27 02:45:48;;;;;;;9.50;4.45;;;;;;;24.52;100.00;100478.47;20976624;28;20496;-79
2023/06/27 02:56:13;;;;;;;9.95;4.70;;;;;;;24.47;100.00;100499.41;20999437;28;20500;-79
2023/06/27 03:06:36;;;;;;;8.60;3.95;;;;;;;24.48;100.00;100501.16;20990878;28;20071;-80
2023/06/27 03:17:03;;;;;;;10.75;4.05;;;;;;;24.53;100.00;100521.59;21004917;28;20094;-79
2023/06/27 03:27:27;;;;;;;6.82;3.42;;;;;;;24.63;100.00;100528.31;21044681;28;20048;-78
2023/06/27 03:37:54;;;;;;;10.80;3.78;;;;;;;24.86;100.00;100516.44;20959655;28;20503;-79
2023/06/27 03:48:18;;;;;;;7.65;3.20;;;;;;;25.21;100.00;100527.41;20967780;28;20094;-79
2023/06/27 03:58:43;;;;;;;7.30;3.58;;;;;;;25.58;100.00;100521.09;20957978;28;20139;-78
2023/06/27 04:09:05;;;;;;;9.68;3.53;;;;;;;25.95;100.00;100514.69;20978147;28;20077;-77
2023/06/27 04:19:29;;;;;;;5.80;3.40;;;;;;;26.37;100.00;100525.13;20989330;28;20064;-77
2023/06/27 04:29:34;;;;;;;8.10;3.35;;;;;;;26.70;100.00;100534.16;21012067;28;20044;-77
2023/06/27 04:39:58;;;;;;;8.90;3.70;;;;;;;27.18;100.00;100537.81;20982669;28;20051;-78
2023/06/27 04:50:21;;;;;;;7.75;3.28;;;;;;;27.61;100.00;100542.56;20989015;28;20411;-78
2023/06/27 05:00:47;;;;;;;7.20;3.17;;;;;;;28.13;100.00;100558.44;20997153;28;20044;-78
2023/06/27 05:11:09;;;;;;;6.35;3.35;;;;;;;28.41;100.00;100553.13;20950228;28;20140;-78
2023/06/27 05:21:33;;;;;;;7.10;3.67;;;;;;;28.88;100.00;100557.47;21017316;28;20554;-78
2023/06/27 05:31:56;;;;;;;6.95;3.13;;;;;;;29.55;100.00;100558.53;21004805;28;20056;-78
2023/06/27 05:42:20;;;;;;;8.35;3.45;;;;;;;29.89;100.00;100563.47;20998529;28;20041;-79
2023/06/27 05:52:43;;;;;;;6.85;2.90;;;;;;;30.20;100.00;100564.13;20974991;28;20064;-79
2023/06/27 06:03:07;;;;;;;7.20;3.20;;;;;;;30.65;97.88;100571.84;20986190;28;20045;-79
2023/06/27 06:13:30;;;;;;;6.20;3.05;;;;;;;31.37;91.97;100558.47;20991101;28;20044;-78
2023/06/27 06:23:54;;;;;;;7.63;3.38;;;;;;;31.88;83.04;100565.50;20976625;28;20509;-79
2023/06/27 06:34:16;;;;;;;7.10;3.00;;;;;;;32.43;79.45;100569.44;20966003;28;20068;-79
2023/06/27 06:44:41;;;;;;;9.07;3.45;;;;;;;32.90;72.78;100567.56;20981840;28;20059;-79
2023/06/27 06:55:03;;;;;;;7.57;3.17;;;;;;;33.32;73.55;100571.44;20961671;28;20063;-79
2023/06/27 07:05:27;;;;;;;7.97;3.20;;;;;;;33.63;75.07;100579.72;20966696;28;20064;-79
2023/06/27 07:15:50;;;;;;;7.50;2.83;;;;;;;33.97;67.26;100576.91;21003047;28;20041;-79
2023/06/27 07:26:14;;;;;;;6.10;2.40;;;;;;;33.66;60.50;100569.53;21056355;28;20437;-78
2023/06/27 07:36:37;;;;;;;6.30;2.63;;;;;;;33.90;58.50;100568.34;21065398;28;20052;-78
2023/06/27 07:47:02;;;;;;;7.22;2.85;;;;;;;34.41;60.33;100578.59;21043510;28;20063;-79
2023/06/27 07:57:24;;;;;;;7.40;3.10;;;;;;;34.57;60.71;100586.38;21012099;28;20067;-79
2023/06/27 08:07:48;;;;;;;8.85;3.13;;;;;;;34.44;61.67;100585.69;21044478;28;20052;-79
2023/06/27 08:18:11;;;;;;;6.53;2.55;;;;;;;34.59;59.00;100584.38;21042693;28;20484;-79
2023/06/27 08:28:35;;;;;;;8.80;2.70;;;;;;;34.73;58.80;100595.88;21053418;28;20511;-79
2023/06/27 08:38:58;;;;;;;13.13;2.57;;;;;;;34.26;56.26;100599.13;21056253;28;20052;-78
2023/06/27 08:49:28;;;;;;;6.57;2.40;;;;;;;34.60;53.69;100608.91;21001256;28;20404;-79
2023/06/27 08:59:51;;;;;;;6.72;2.35;;;;;;;34.90;51.75;100619.09;21049132;28;20041;-79
2023/06/27 09:10:16;;;;;;;8.98;2.80;;;;;;;35.19;48.03;100619.22;21064227;28;20048;-79
2023/06/27 09:20:39;;;;;;;5.90;2.87;;;;;;;34.81;48.64;100622.66;20991166;28;20060;-78
2023/06/27 09:31:03;;;;;;;6.38;2.40;;;;;;;35.39;49.38;100623.84;20971302;28;20048;-81
2023/06/27 09:41:40;;;;;;;6.47;2.38;;;;;;;35.56;46.59;100625.06;20980565;28;20101;-79
2023/06/27 09:52:07;;;;;;;5.68;2.97;;;;;;;35.72;46.09;100624.53;20968140;28;20052;-80
2023/06/27 10:02:30;;;;;;;12.23;2.75;;;;;;;35.40;45.99;100616.47;20964472;28;20040;-80
2023/06/27 10:12:55;;;;;;;6.15;2.83;;;;;;;35.55;48.98;100635.19;20977851;28;20094;-80
2023/06/27 10:23:18;;;;;;;8.55;2.50;;;;;;;34.66;52.54;100619.34;20957348;28;20523;-78
2023/06/27 10:33:42;;;;;;;9.70;2.83;;;;;;;34.95;49.88;100632.41;20981414;28;20045;-80
2023/06/27 10:44:19;;;;;;;9.80;3.17;;;;;;;35.00;51.78;100624.63;20961962;28;20056;-79
2023/06/27 10:54:43;;;;;;;7.82;2.90;;;;;;;35.36;51.44;100621.38;20946659;28;20052;-80
2023/06/27 11:05:12;;;;;;;7.65;2.80;;;;;;;35.77;48.82;100625.88;20980258;28;20044;-78
2023/06/27 11:15:37;;;;;;;7.80;2.65;;;;;;;35.71;48.41;100620.94;21013252;28;20059;-80
2023/06/27 11:26:00;;;;;;;8.20;2.72;;;;;;;35.54;50.52;100616.97;20992724;28;20060;-79
2023/06/27 11:36:25;;;;;;;5.55;3.00;;;;;;;35.47;50.29;100623.16;21009292;28;20051;-80
2023/06/27 11:46:49;;;;;;;9.35;3.22;;;;;;;34.56;46.64;100629.38;20974382;28;20068;-78
2023/06/27 11:57:14;;;;;;;7.25;3.08;;;;;;;34.34;45.58;100621.25;20982338;28;20280;-79
2023/06/27 12:07:36;;;;;;;7.27;3.30;;;;;;;33.90;44.96;100622.28;21006783;28;20055;-80
2023/06/27 12:18:02;;;;;;;6.18;3.20;;;;;;;34.17;45.65;100627.28;20999164;28;20127;-80
2023/06/27 12:28:26;;;;;;;8.52;3.17;;;;;;;34.64;44.54;100632.34;20979183;28;20485;-81
2023/06/27 12:38:53;;;;;;;6.50;3.25;;;;;;;34.65;43.53;100606.66;20994169;28;20055;-81
2023/06/27 12:49:16;;;;;;;6.40;2.95;;;;;;;35.26;41.94;100625.06;21010415;28;20151;-79
2023/06/27 12:59:40;;;;;;;6.50;2.97;;;;;;;35.36;41.36;100628.75;20993319;28;20041;-81
2023/06/27 13:10:03;;;;;;;;;;;;;;;35.26;40.71;100631.44;20996797;28;20048;-80
2023/06/27 13:20:27;;;;;;;6.18;3.03;;;;;;;35.41;41.25;100624.56;20994868;28;19999;-79
2023/06/27 13:30:50;;;;;;;6.57;3.17;;;;;;;35.11;42.34;100610.84;21004138;28;20082;-81
2023/06/27 13:41:15;;;;;;;7.65;3.28;;;;;;;34.50;44.27;100621.69;21027801;28;20647;-80
2023/06/27 13:51:38;;;;;;;7.57;3.03;;;;;;;34.32;44.93;100604.09;21004971;28;20044;-80
2023/06/27 14:02:04;;;;;;;7.93;3.42;;;;;;;34.24;44.81;100606.63;21039372;28;20520;-80
2023/06/27 14:12:27;;;;;;;6.93;3.25;;;;;;;34.11;45.99;100601.28;21022538;28;20836;-81
2023/06/27 14:22:53;;;;;;;7.97;3.13;;;;;;;34.06;46.80;100588.97;20968354;28;20048;-77
2023/06/27 14:33:20;;;;;;;8.00;3.20;;;;;;;34.27;46.50;100582.53;20991750;28;20039;-79
2023/06/27 14:43:45;;;;;;;6.50;2.60;;;;;;;33.82;48.86;100579.06;21010139;28;20045;-78
2023/06/27 14:54:08;;;;;;;8.82;2.92;;;;;;;33.77;50.08;100566.78;21002840;28;20052;-77
2023/06/27 15:04:32;;;;;;;7.63;3.10;;;;;;;33.35;49.21;100568.44;20982098;28;20059;-77
2023/06/27 15:14:55;;;;;;;10.18;3.17;;;;;;;32.81;49.75;100571.94;20973905;28;20127;-78
2023/06/27 15:25:19;;;;;;;10.63;2.92;;;;;;;32.26;52.01;100572.63;20980808;28;20412;-79
2023/06/27 15:35:42;;;;;;;7.32;3.28;;;;;;;31.73;53.52;100584.91;20970294;28;20049;-77
2023/06/27 15:46:07;;;;;;;6.85;3.30;;;;;;;31.08;56.27;100580.56;20973859;28;20056;-78
2023/06/27 15:56:29;;;;;;;7.72;4.00;;;;;;;30.54;59.86;100576.28;20961953;28;20047;-77
2023/06/27 16:06:54;;;;;;;8.95;3.97;;;;;;;30.03;63.57;100590.66;20960905;28;20064;-78
2023/06/27 16:17:19;;;;;;;7.80;3.63;;;;;;;29.62;67.45;100590.69;20950357;28;20570;-77
2023/06/27 16:27:38;;;;;;;6.13;3.40;;;;;;;29.37;72.04;100589.69;20968919;28;20071;-76
2023/06/27 16:38:02;;;;;;;8.88;3.58;;;;;;;29.08;76.46;100602.41;20951443;28;20044;-78
2023/06/27 16:48:27;;;;;;;10.77;4.05;;;;;;;28.87;81.92;100600.09;20951987;28;20129;-76
2023/06/27 16:58:50;;;;;;;9.73;3.80;;;;;;;28.57;86.36;100596.50;20955208;28;20563;-78
2023/06/27 17:09:14;;;;;;;10.13;4.05;;;;;;;28.43;88.36;100610.94;20970745;28;20048;-77
2023/06/27 17:19:37;;;;;;;11.07;4.22;;;;;;;28.25;90.82;100606.63;20959440;28;20051;-77
2023/06/27 17:30:01;;;;;;;9.77;4.38;;;;;;;28.00;95.19;100614.44;20977758;28;20078;-77
2023/06/27 17:40:25;;;;;;;10.60;4.72;;;;;;;27.61;99.75;100626.66;20952888;28;20102;-78
2023/06/27 17:50:49;;;;;;;8.77;4.53;;;;;;;27.36;100.00;100640.69;20990977;28;20074;-78
2023/06/27 18:01:12;;;;;;;11.57;4.78;;;;;;;27.25;100.00;100634.09;20997265;28;20694;-77
2023/06/27 18:11:36;;;;;;;9.25;4.18;;;;;;;27.12;100.00;100633.03;21013082;28;20048;-77
2023/06/27 18:21:58;;;;;;;10.70;4.93;;;;;;;26.99;100.00;100630.09;21002181;28;20110;-76
2023/06/27 18:32:23;;;;;;;9.05;4.32;;;;;;;26.82;100.00;100630.13;20948879;28;20075;-77
2023/06/27 18:42:46;;;;;;;10.63;4.45;;;;;;;26.70;100.00;100639.78;20963680;28;20044;-78
2023/06/27 18:53:10;;;;;;;11.95;5.13;;;;;;;26.65;100.00;100652.66;20946765;28;20057;-77
2023/06/27 19:03:35;;;;;;;8.27;4.85;;;;;;;26.46;100.00;100652.75;20951961;28;20048;-77
2023/06/27 19:13:59;;;;;;;12.00;4.57;;;;;;;26.35;100.00;100657.88;20952999;28;20175;-76
2023/06/27 19:24:23;;;;;;;10.70;4.65;;;;;;;26.24;100.00;100668.38;20976016;28;20066;-77
2023/06/27 19:34:49;;;;;;;8.05;4.80;;;;;;;26.16;100.00;100675.97;21016855;28;20049;-77
2023/06/27 19:45:12;;;;;;;8.07;4.82;;;;;;;26.01;100.00;100682.13;21012043;28;20047;-78
2023/06/27 19:55:36;;;;;;;8.95;4.80;;;;;;;25.87;100.00;100674.69;20974580;28;20052;-76
2023/06/27 20:05:58;;;;;;;11.35;4.85;;;;;;;25.82;100.00;100682.16;21029781;28;20488;-76
2023/06/27 20:16:23;;;;;;;9.90;4.70;;;;;;;25.68;100.00;100677.41;20994822;28;20489;-79
2023/06/27 20:26:46;;;;;;;9.05;5.22;;;;;;;25.60;100.00;100686.88;21008336;28;20105;-77
2023/06/27 20:37:10;;;;;;;10.32;5.05;;;;;;;25.47;100.00;100685.66;21069810;28;20052;-78
2023/06/27 20:47:32;;;;;;;8.75;4.68;;;;;;;25.49;100.00;100692.72;21030363;28;20442;-78
2023/06/27 20:57:57;;;;;;;8.75;4.80;;;;;;;25.51;100.00;100696.25;21056589;28;20514;-78
2023/06/27 21:08:19;;;;;;;9.77;5.00;;;;;;;25.37;100.00;100680.66;20986211;28;20048;-77
2023/06/27 21:18:43;;;;;;;9.60;5.25;;;;;;;25.38;100.00;100685.13;20957487;28;20427;-77
2023/06/27 21:29:06;;;;;;;9.13;5.07;;;;;;;25.24;100.00;100682.19;21042087;28;20470;-78
2023/06/27 21:39:31;;;;;;;7.63;4.60;;;;;;;25.14;100.00;100683.53;20937987;28;20045;-77
2023/06/27 21:49:53;;;;;;;9.57;5.15;;;;;;;24.98;100.00;100675.28;20943768;28;20413;-78
2023/06/27 22:00:18;;;;;;;10.35;5.47;;;;;;;24.88;100.00;100670.31;20962162;28;20048;-78
2023/06/27 22:10:41;;;;;;;12.13;4.95;;;;;;;24.88;100.00;100664.91;20975061;28;20106;-78
2023/06/27 22:21:05;;;;;;;12.82;6.07;;;;;;;24.79;100.00;100650.00;20963433;28;20049;-78
2023/06/27 22:31:28;;;;;;;11.88;5.85;;;;;;;24.76;100.00;100647.44;20937844;28;20051;-78
2023/06/27 22:41:53;;;;;;;10.13;5.90;;;;;;;24.63;100.00;100644.41;20978349;28;20055;-78
2023/06/27 22:52:15;;;;;;;12.52;5.95;;;;;;;24.51;100.00;100650.34;20968562;28;20048;-78
2023/06/27 23:02:40;;;;;;;9.45;5.05;;;;;;;24.47;100.00;100635.25;20965868;28;20087;-78
2023/06/27 23:13:03;;;;;;;10.25;4.82;;;;;;;24.42;100.00;100631.84;21001508;28;20489;-79
2023/06/27 23:23:28;;;;;;;10.27;5.13;;;;;;;24.38;100.00;100637.44;21071786;28;20126;-76
2023/06/27 23:33:51;;;;;;;11.13;4.93;;;;;;;24.30;100.00;100640.47;21013302;28;20055;-76
2023/06/27 23:44:15;;;;;;;7.43;4.63;;;;;;;24.35;100.00;100648.38;20971722;28;20044;-77
2023/06/27 23:54:38;;;;;;;11.57;5.38;;;;;;;24.26;100.00;100638.84;20966328;28;20071;-76
